Check out our new PWSWeather beta!
PWSweather.com
Personal Weather Stations
Station Observations
KTXPLANO60
Highlands Of Russell Park, Plano, TX 75025

Highlands Of Russell ParkPlano, TX 75025

Lat: 33.10431671, Lon: -96.75176239

Elevation: 761

Station Type: Davis Wireless VP2 Plus

http://www.planoweather.com

Latest ConditionsUpdated 3:50:02 AM CST Wednesday, Feb 26, 2020
Currently Today's Max Today's Min Today's Average
Temperature 38.8°F3.8°C 41.3°F5.2°C 38.8°F3.8°C 39.6°F4.2°C
Dew Point 34.4°F1.3°C 34.4°F1.3°C 29.3°F-1.5°C 32.4°F0.2°C
Winds 11.5 mph NW18.5 kmh NW 15.0 mph -24.1 kmh - - 11.4 mph 18.3 kmh
Wind Gusts 19.6 mph31.5 kmh 24.2 mph38.9 kmh - -
Humidity 84% 84% 62% 75%
Pressure 30.19 in1022.4 mb 30.19 in1022.4 mb 30.16 in1021.3 mb -
Hour Temp Dew Point Humidity Winds Wind Gusts Pressure Precip Precip Rate Daily Precip Total
03:50 AM 38.8°F3.8°C 34.4°F1.3°C 84% 11.5 mph NW18.5 kmh NW 19.6 mph31.5 kmh 30.19 in1022.4 mb - 0.00 in0.0 mm 0.00 in0.0 mm
03:40 AM 39.0°F3.9°C 34.3°F1.3°C 83% 11.5 mph NW18.5 kmh NW 16.1 mph25.9 kmh 30.19 in1022.4 mb - 0.00 in0.0 mm 0.00 in0.0 mm
03:30 AM 39.1°F3.9°C 34.1°F1.2°C 82% 11.5 mph WNW18.5 kmh WNW 13.8 mph22.2 kmh 30.18 in1022.0 mb - 0.00 in0.0 mm 0.00 in0.0 mm
03:20 AM 39.2°F4.0°C 34.2°F1.2°C 82% 11.5 mph NW18.5 kmh NW 15.0 mph24.1 kmh 30.18 in1022.0 mb - 0.00 in0.0 mm 0.00 in0.0 mm
03:10 AM 39.2°F4.0°C 34.2°F1.2°C 82% 9.2 mph NW14.8 kmh NW 17.3 mph27.8 kmh 30.18 in1022.0 mb - 0.00 in0.0 mm 0.00 in0.0 mm
03:00 AM 39.1°F3.9°C 34.1°F1.2°C 82% 13.8 mph WNW22.2 kmh WNW 19.6 mph31.5 kmh 30.17 in1021.7 mb - 0.00 in0.0 mm 0.00 in0.0 mm
02:50 AM 39.2°F4.0°C 33.9°F1.1°C 81% 11.5 mph WNW18.5 kmh WNW 19.6 mph31.5 kmh 30.18 in1022.0 mb - 0.00 in0.0 mm 0.00 in0.0 mm
02:40 AM 39.3°F4.1°C 33.7°F0.9°C 80% 13.8 mph WNW22.2 kmh WNW 19.6 mph31.5 kmh 30.17 in1021.7 mb - 0.00 in0.0 mm 0.00 in0.0 mm
02:30 AM 39.5°F4.2°C 33.5°F0.8°C 79% 10.4 mph WNW16.7 kmh WNW 23.0 mph37.0 kmh 30.17 in1021.7 mb - 0.00 in0.0 mm 0.00 in0.0 mm
02:20 AM 39.8°F4.3°C 33.5°F0.8°C 78% 10.4 mph WNW16.7 kmh WNW 17.3 mph27.8 kmh 30.17 in1021.7 mb - 0.00 in0.0 mm 0.00 in0.0 mm
02:10 AM 40.0°F4.4°C 33.0°F0.6°C 76% 10.4 mph WNW16.7 kmh WNW 15.0 mph24.1 kmh 30.17 in1021.7 mb - 0.00 in0.0 mm 0.00 in0.0 mm
02:00 AM 40.0°F4.4°C 32.7°F0.4°C 75% 11.5 mph W18.5 kmh W 12.7 mph20.4 kmh 30.17 in1021.7 mb - 0.00 in0.0 mm 0.00 in0.0 mm
01:50 AM 39.8°F4.3°C 32.2°F0.1°C 74% 8.1 mph W13.0 kmh W 13.8 mph22.2 kmh 30.17 in1021.7 mb - 0.00 in0.0 mm 0.00 in0.0 mm
01:40 AM 39.6°F4.2°C 31.7°F-0.2°C 73% 6.9 mph WNW11.1 kmh WNW 11.5 mph18.5 kmh 30.17 in1021.7 mb - 0.00 in0.0 mm 0.00 in0.0 mm
01:30 AM 39.4°F4.1°C 31.5°F-0.3°C 73% 9.2 mph W14.8 kmh W 16.1 mph25.9 kmh 30.17 in1021.7 mb - 0.00 in0.0 mm 0.00 in0.0 mm
01:20 AM 39.4°F4.1°C 31.5°F-0.3°C 73% 8.1 mph WNW13.0 kmh WNW 15.0 mph24.1 kmh 30.17 in1021.7 mb - 0.00 in0.0 mm 0.00 in0.0 mm
01:10 AM 39.4°F4.1°C 31.1°F-0.5°C 72% 9.2 mph W14.8 kmh W 18.4 mph29.6 kmh 30.17 in1021.7 mb - 0.00 in0.0 mm 0.00 in0.0 mm
01:00 AM 39.4°F4.1°C 31.1°F-0.5°C 72% 15.0 mph WNW24.1 kmh WNW 19.6 mph31.5 kmh 30.17 in1021.7 mb - 0.00 in0.0 mm 0.00 in0.0 mm
12:50 AM 39.4°F4.1°C 30.8°F-0.7°C 71% 12.7 mph W20.4 kmh W 19.6 mph31.5 kmh 30.17 in1021.7 mb - 0.00 in0.0 mm 0.00 in0.0 mm
12:40 AM 39.7°F4.3°C 30.7°F-0.7°C 70% 15.0 mph WNW24.1 kmh WNW 18.4 mph29.6 kmh 30.17 in1021.7 mb - 0.00 in0.0 mm 0.00 in0.0 mm
12:30 AM 40.0°F4.4°C 30.6°F-0.8°C 69% 15.0 mph W24.1 kmh W 24.2 mph38.9 kmh 30.17 in1021.7 mb - 0.00 in0.0 mm 0.00 in0.0 mm
12:20 AM 40.4°F4.7°C 30.7°F-0.7°C 68% 13.8 mph W22.2 kmh W 19.6 mph31.5 kmh 30.17 in1021.7 mb - 0.00 in0.0 mm 0.00 in0.0 mm
12:10 AM 40.9°F4.9°C 30.0°F-1.1°C 65% 11.5 mph W18.5 kmh W 19.6 mph31.5 kmh 30.17 in1021.7 mb - 0.00 in0.0 mm 0.00 in0.0 mm
12:00 AM 41.3°F5.2°C 29.3°F-1.5°C 62% 11.5 mph WNW18.5 kmh WNW 16.1 mph25.9 kmh 30.16 in1021.3 mb - 0.00 in0.0 mm 0.00 in0.0 mm